sensor_id;sensor_type;location;lat;lon;timestamp;pressure;altitude;pressure_sealevel;temperature;humidity
78741;BME280;68062;48.726;9.370;2024-01-06T00:01:27;97588.53;;;5.16;100.00
78741;BME280;68062;48.726;9.370;2024-01-06T00:03:55;97598.72;;;5.14;100.00
78741;BME280;68062;48.726;9.370;2024-01-06T00:06:24;97592.75;;;5.05;100.00
78741;BME280;68062;48.726;9.370;2024-01-06T00:08:52;97593.59;;;4.99;100.00
78741;BME280;68062;48.726;9.370;2024-01-06T00:11:22;97589.34;;;4.85;100.00
78741;BME280;68062;48.726;9.370;2024-01-06T00:13:51;97588.47;;;4.80;100.00
78741;BME280;68062;48.726;9.370;2024-01-06T00:16:21;97597.81;;;4.84;100.00
78741;BME280;68062;48.726;9.370;2024-01-06T00:18:53;97602.94;;;4.97;100.00
78741;BME280;68062;48.726;9.370;2024-01-06T00:21:23;97602.06;;;4.89;100.00
78741;BME280;68062;48.726;9.370;2024-01-06T00:23:51;97603.78;;;4.94;100.00
78741;BME280;68062;48.726;9.370;2024-01-06T00:26:19;97586.75;;;4.75;100.00
78741;BME280;68062;48.726;9.370;2024-01-06T00:28:50;97600.31;;;4.69;100.00
78741;BME280;68062;48.726;9.370;2024-01-06T00:31:20;97607.06;;;4.59;100.00
78741;BME280;68062;48.726;9.370;2024-01-06T00:33:48;97612.16;;;4.57;100.00
78741;BME280;68062;48.726;9.370;2024-01-06T00:36:17;97607.03;;;4.53;100.00
78741;BME280;68062;48.726;9.370;2024-01-06T00:38:45;97604.50;;;4.56;100.00
78741;BME280;68062;48.726;9.370;2024-01-06T00:41:13;97603.69;;;4.63;100.00
78741;BME280;68062;48.726;9.370;2024-01-06T00:43:42;97613.00;;;4.55;100.00
78741;BME280;68062;48.726;9.370;2024-01-06T00:46:10;97593.41;;;4.35;100.00
78741;BME280;68062;48.726;9.370;2024-01-06T00:48:39;97615.47;;;4.35;100.00
78741;BME280;68062;48.726;9.370;2024-01-06T00:51:07;97615.47;;;4.32;100.00
78741;BME280;68062;48.726;9.370;2024-01-06T00:53:35;97606.06;;;4.23;100.00
78741;BME280;68062;48.726;9.370;2024-01-06T00:56:03;97614.53;;;4.22;100.00
78741;BME280;68062;48.726;9.370;2024-01-06T00:58:31;97620.47;;;4.19;100.00
78741;BME280;68062;48.726;9.370;2024-01-06T01:01:00;97630.63;;;4.18;100.00
78741;BME280;68062;48.726;9.370;2024-01-06T01:03:28;97629.81;;;4.17;100.00
78741;BME280;68062;48.726;9.370;2024-01-06T01:05:58;97618.78;;;4.20;100.00
78741;BME280;68062;48.726;9.370;2024-01-06T01:08:26;97582.22;;;4.01;100.00
78741;BME280;68062;48.726;9.370;2024-01-06T01:10:54;97625.53;;;4.15;100.00
78741;BME280;68062;48.726;9.370;2024-01-06T01:13:22;97630.63;;;4.13;100.00
78741;BME280;68062;48.726;9.370;2024-01-06T01:15:50;97627.22;;;4.16;100.00
78741;BME280;68062;48.726;9.370;2024-01-06T01:18:19;97621.22;;;4.04;100.00
78741;BME280;68062;48.726;9.370;2024-01-06T01:20:47;97588.88;;;3.80;100.00
78741;BME280;68062;48.726;9.370;2024-01-06T01:23:16;97637.31;;;4.00;100.00
78741;BME280;68062;48.726;9.370;2024-01-06T01:25:44;97599.94;;;3.83;100.00
78741;BME280;68062;48.726;9.370;2024-01-06T01:28:13;97633.09;;;4.02;100.00
78741;BME280;68062;48.726;9.370;2024-01-06T01:30:42;97649.22;;;4.00;100.00
78741;BME280;68062;48.726;9.370;2024-01-06T01:33:10;97641.56;;;3.95;100.00
78741;BME280;68062;48.726;9.370;2024-01-06T01:35:38;97650.88;;;3.97;100.00
78741;BME280;68062;48.726;9.370;2024-01-06T01:38:09;97658.53;;;3.97;100.00
78741;BME280;68062;48.726;9.370;2024-01-06T01:40:38;97651.72;;;3.92;100.00
78741;BME280;68062;48.726;9.370;2024-01-06T01:43:06;97647.44;;;3.88;100.00
78741;BME280;68062;48.726;9.370;2024-01-06T01:45:43;97661.03;;;3.94;100.00
78741;BME280;68062;48.726;9.370;2024-01-06T01:48:11;97657.63;;;3.89;100.00
78741;BME280;68062;48.726;9.370;2024-01-06T01:50:40;97666.09;;;3.91;100.00
78741;BME280;68062;48.726;9.370;2024-01-06T01:53:12;97653.38;;;3.88;100.00
78741;BME280;68062;48.726;9.370;2024-01-06T01:55:42;97663.59;;;3.93;100.00
78741;BME280;68062;48.726;9.370;2024-01-06T01:58:12;97666.94;;;3.86;100.00
78741;BME280;68062;48.726;9.370;2024-01-06T02:00:41;97669.50;;;3.89;100.00
78741;BME280;68062;48.726;9.370;2024-01-06T02:03:10;97651.56;;;3.72;100.00
78741;BME280;68062;48.726;9.370;2024-01-06T02:05:41;97666.00;;;3.79;100.00
78741;BME280;68062;48.726;9.370;2024-01-06T02:08:09;97655.78;;;3.68;100.00
78741;BME280;68062;48.726;9.370;2024-01-06T02:10:37;97674.47;;;3.78;100.00
78741;BME280;68062;48.726;9.370;2024-01-06T02:13:10;97670.25;;;3.75;100.00
78741;BME280;68062;48.726;9.370;2024-01-06T02:15:38;97676.97;;;3.72;100.00
78741;BME280;68062;48.726;9.370;2024-01-06T02:18:06;97666.75;;;3.65;100.00
78741;BME280;68062;48.726;9.370;2024-01-06T02:20:35;97682.91;;;3.69;100.00
78741;BME280;68062;48.726;9.370;2024-01-06T02:23:05;97679.53;;;3.72;100.00
78741;BME280;68062;48.726;9.370;2024-01-06T02:25:34;97682.03;;;3.67;100.00
78741;BME280;68062;48.726;9.370;2024-01-06T02:28:03;97685.41;;;3.64;100.00
78741;BME280;68062;48.726;9.370;2024-01-06T02:30:31;97690.50;;;3.66;100.00
78741;BME280;68062;48.726;9.370;2024-01-06T02:33:01;97695.53;;;3.61;100.00
78741;BME280;68062;48.726;9.370;2024-01-06T02:35:29;97698.91;;;3.57;100.00
78741;BME280;68062;48.726;9.370;2024-01-06T02:38:01;97704.88;;;3.61;100.00
78741;BME280;68062;48.726;9.370;2024-01-06T02:40:31;97703.13;;;3.57;100.00
78741;BME280;68062;48.726;9.370;2024-01-06T02:42:59;97709.94;;;3.59;100.00
78741;BME280;68062;48.726;9.370;2024-01-06T02:45:27;97699.03;;;3.73;100.00
78741;BME280;68062;48.726;9.370;2024-01-06T02:47:55;97691.38;;;3.68;100.00
78741;BME280;68062;48.726;9.370;2024-01-06T02:50:24;97699.91;;;3.76;100.00
78741;BME280;68062;48.726;9.370;2024-01-06T02:52:51;97689.75;;;3.76;100.00
78741;BME280;68062;48.726;9.370;2024-01-06T02:55:19;97690.63;;;3.78;100.00
78741;BME280;68062;48.726;9.370;2024-01-06T02:57:48;97689.69;;;3.72;100.00
78741;BME280;68062;48.726;9.370;2024-01-06T03:00:17;97701.63;;;3.77;100.00
78741;BME280;68062;48.726;9.370;2024-01-06T03:02:45;97705.03;;;3.79;100.00
78741;BME280;68062;48.726;9.370;2024-01-06T03:05:13;97705.88;;;3.78;100.00
78741;BME280;68062;48.726;9.370;2024-01-06T03:07:40;97708.34;;;3.71;100.00
78741;BME280;68062;48.726;9.370;2024-01-06T03:10:10;97715.16;;;3.75;100.00
78741;BME280;68062;48.726;9.370;2024-01-06T03:12:38;97707.47;;;3.68;100.00
78741;BME280;68062;48.726;9.370;2024-01-06T03:15:08;97703.19;;;3.64;100.00
78741;BME280;68062;48.726;9.370;2024-01-06T03:17:37;97702.34;;;3.64;100.00
78741;BME280;68062;48.726;9.370;2024-01-06T03:20:07;97704.84;;;3.59;100.00
78741;BME280;68062;48.726;9.370;2024-01-06T03:22:35;97710.78;;;3.57;100.00
78741;BME280;68062;48.726;9.370;2024-01-06T03:25:05;97700.56;;;3.55;100.00
78741;BME280;68062;48.726;9.370;2024-01-06T03:27:34;97702.38;;;3.67;100.00
78741;BME280;68062;48.726;9.370;2024-01-06T03:30:02;97704.94;;;3.72;100.00
78741;BME280;68062;48.726;9.370;2024-01-06T03:32:31;97692.94;;;3.55;100.00
78741;BME280;68062;48.726;9.370;2024-01-06T03:35:00;97682.69;;;3.46;100.00
78741;BME280;68062;48.726;9.370;2024-01-06T03:37:34;97694.53;;;3.44;100.00
78741;BME280;68062;48.726;9.370;2024-01-06T03:40:02;97691.94;;;3.36;100.00
78741;BME280;68062;48.726;9.370;2024-01-06T03:42:30;97682.56;;;3.33;100.00
78741;BME280;68062;48.726;9.370;2024-01-06T03:44:59;97685.97;;;3.35;100.00
78741;BME280;68062;48.726;9.370;2024-01-06T03:47:27;97674.03;;;3.23;100.00
78741;BME280;68062;48.726;9.370;2024-01-06T03:49:57;97695.25;;;3.30;100.00
78741;BME280;68062;48.726;9.370;2024-01-06T03:52:25;97696.97;;;3.33;100.00
78741;BME280;68062;48.726;9.370;2024-01-06T03:54:53;97702.94;;;3.35;100.00
78741;BME280;68062;48.726;9.370;2024-01-06T03:57:22;97696.13;;;3.32;100.00
78741;BME280;68062;48.726;9.370;2024-01-06T03:59:50;97707.97;;;3.32;100.00
78741;BME280;68062;48.726;9.370;2024-01-06T04:02:20;97711.38;;;3.31;100.00
78741;BME280;68062;48.726;9.370;2024-01-06T04:04:48;97710.53;;;3.32;100.00
78741;BME280;68062;48.726;9.370;2024-01-06T04:07:17;97710.50;;;3.30;100.00
78741;BME280;68062;48.726;9.370;2024-01-06T04:09:47;97705.34;;;3.22;100.00
78741;BME280;68062;48.726;9.370;2024-01-06T04:12:15;97711.28;;;3.24;100.00
78741;BME280;68062;48.726;9.370;2024-01-06T04:14:44;97711.28;;;3.26;100.00
78741;BME280;68062;48.726;9.370;2024-01-06T04:17:13;97711.22;;;3.18;100.00
78741;BME280;68062;48.726;9.370;2024-01-06T04:19:42;97709.50;;;3.14;100.00
78741;BME280;68062;48.726;9.370;2024-01-06T04:22:14;97714.72;;;3.28;100.00
78741;BME280;68062;48.726;9.370;2024-01-06T04:24:43;97716.31;;;3.18;100.00
78741;BME280;68062;48.726;9.370;2024-01-06T04:27:11;97723.06;;;3.18;100.00
78741;BME280;68062;48.726;9.370;2024-01-06T04:29:40;97717.13;;;3.14;100.00
78741;BME280;68062;48.726;9.370;2024-01-06T04:32:07;97730.69;;;3.16;100.00
78741;BME280;68062;48.726;9.370;2024-01-06T04:34:35;97723.09;;;3.19;100.00
78741;BME280;68062;48.726;9.370;2024-01-06T04:37:03;97716.31;;;3.20;100.00
78741;BME280;68062;48.726;9.370;2024-01-06T04:39:31;97723.06;;;3.16;100.00
78741;BME280;68062;48.726;9.370;2024-01-06T04:42:05;97723.81;;;3.07;100.00
78741;BME280;68062;48.726;9.370;2024-01-06T04:44:33;97723.84;;;3.09;100.00
78741;BME280;68062;48.726;9.370;2024-01-06T04:47:02;97729.72;;;3.06;100.00
78741;BME280;68062;48.726;9.370;2024-01-06T04:49:32;97722.09;;;3.06;100.00
78741;BME280;68062;48.726;9.370;2024-01-06T04:52:04;97716.91;;;2.96;100.00
78741;BME280;68062;48.726;9.370;2024-01-06T04:54:32;97729.69;;;3.03;100.00
78741;BME280;68062;48.726;9.370;2024-01-06T04:57:01;97735.47;;;2.91;100.00
78741;BME280;68062;48.726;9.370;2024-01-06T04:59:30;97728.63;;;2.84;100.00
78741;BME280;68062;48.726;9.370;2024-01-06T05:01:58;97737.97;;;2.88;100.00
78741;BME280;68062;48.726;9.370;2024-01-06T05:04:28;97736.28;;;2.89;100.00
78741;BME280;68062;48.726;9.370;2024-01-06T05:06:58;97744.69;;;2.85;100.00
78741;BME280;68062;48.726;9.370;2024-01-06T05:09:28;97736.25;;;2.84;100.00
78741;BME280;68062;48.726;9.370;2024-01-06T05:11:56;97741.28;;;2.83;100.00
78741;BME280;68062;48.726;9.370;2024-01-06T05:14:24;97743.78;;;2.79;100.00
78741;BME280;68062;48.726;9.370;2024-01-06T05:16:54;97740.69;;;3.02;100.00
78741;BME280;68062;48.726;9.370;2024-01-06T05:19:22;97748.22;;;2.94;100.00
78741;BME280;68062;48.726;9.370;2024-01-06T05:21:52;97757.63;;;3.02;100.00
78741;BME280;68062;48.726;9.370;2024-01-06T05:24:20;97755.84;;;2.94;100.00
78741;BME280;68062;48.726;9.370;2024-01-06T05:26:49;97755.75;;;2.88;100.00
78741;BME280;68062;48.726;9.370;2024-01-06T05:29:16;97761.63;;;2.86;100.00
78741;BME280;68062;48.726;9.370;2024-01-06T05:31:44;97758.31;;;2.88;100.00
78741;BME280;68062;48.726;9.370;2024-01-06T05:34:15;97750.66;;;2.85;100.00
78741;BME280;68062;48.726;9.370;2024-01-06T05:36:43;97755.69;;;2.84;100.00
78741;BME280;68062;48.726;9.370;2024-01-06T05:39:12;97759.94;;;2.83;100.00
78741;BME280;68062;48.726;9.370;2024-01-06T05:41:40;97761.66;;;2.87;100.00
78741;BME280;68062;48.726;9.370;2024-01-06T05:44:09;97748.19;;;2.93;100.00
78741;BME280;68062;48.726;9.370;2024-01-06T05:46:37;97763.47;;;2.94;100.00
78741;BME280;68062;48.726;9.370;2024-01-06T05:49:05;97768.63;;;3.02;100.00
78741;BME280;68062;48.726;9.370;2024-01-06T05:51:35;97778.78;;;3.02;100.00
78741;BME280;68062;48.726;9.370;2024-01-06T05:54:03;97787.28;;;3.04;100.00
78741;BME280;68062;48.726;9.370;2024-01-06T05:56:31;97788.19;;;3.09;100.00
78741;BME280;68062;48.726;9.370;2024-01-06T05:59:00;97787.47;;;3.20;100.00
78741;BME280;68062;48.726;9.370;2024-01-06T06:01:29;97791.66;;;3.18;100.00
78741;BME280;68062;48.726;9.370;2024-01-06T06:03:57;97801.88;;;3.21;100.00
78741;BME280;68062;48.726;9.370;2024-01-06T06:06:25;97783.03;;;3.02;100.00
78741;BME280;68062;48.726;9.370;2024-01-06T06:08:55;97801.00;;;3.17;100.00
78741;BME280;68062;48.726;9.370;2024-01-06T06:11:25;97800.97;;;3.16;100.00
78741;BME280;68062;48.726;9.370;2024-01-06T06:13:54;97803.63;;;3.23;100.00
78741;BME280;68062;48.726;9.370;2024-01-06T06:16:22;97804.44;;;3.24;100.00
78741;BME280;68062;48.726;9.370;2024-01-06T06:18:50;97806.19;;;3.27;100.00
78741;BME280;68062;48.726;9.370;2024-01-06T06:21:18;97802.81;;;3.28;100.00
78741;BME280;68062;48.726;9.370;2024-01-06T06:23:48;97809.56;;;3.26;100.00
78741;BME280;68062;48.726;9.370;2024-01-06T06:26:18;97808.72;;;3.27;100.00
78741;BME280;68062;48.726;9.370;2024-01-06T06:28:48;97812.09;;;3.26;100.00
78741;BME280;68062;48.726;9.370;2024-01-06T06:31:17;97825.69;;;3.29;100.00
78741;BME280;68062;48.726;9.370;2024-01-06T06:33:45;97825.69;;;3.28;100.00
78741;BME280;68062;48.726;9.370;2024-01-06T06:36:13;97830.06;;;3.38;100.00
78741;BME280;68062;48.726;9.370;2024-01-06T06:38:40;97827.47;;;3.36;100.00
78741;BME280;68062;48.726;9.370;2024-01-06T06:41:08;97841.81;;;3.31;100.00
78741;BME280;68062;48.726;9.370;2024-01-06T06:43:38;97821.44;;;3.27;100.00
78741;BME280;68062;48.726;9.370;2024-01-06T06:46:06;97838.59;;;3.45;100.00
78741;BME280;68062;48.726;9.370;2024-01-06T06:48:34;97838.59;;;3.43;100.00
78741;BME280;68062;48.726;9.370;2024-01-06T06:51:03;97839.50;;;3.48;100.00
78741;BME280;68062;48.726;9.370;2024-01-06T06:53:32;97841.91;;;3.39;100.00
78741;BME280;68062;48.726;9.370;2024-01-06T06:55:59;97829.06;;;3.28;100.00
78741;BME280;68062;48.726;9.370;2024-01-06T06:58:29;97842.56;;;3.24;100.00
78741;BME280;68062;48.726;9.370;2024-01-06T07:00:58;97850.28;;;3.30;100.00
78741;BME280;68062;48.726;9.370;2024-01-06T07:03:29;97851.16;;;3.31;100.00
78741;BME280;68062;48.726;9.370;2024-01-06T07:05:56;97849.44;;;3.30;100.00
78741;BME280;68062;48.726;9.370;2024-01-06T07:08:24;97840.94;;;3.28;100.00
78741;BME280;68062;48.726;9.370;2024-01-06T07:10:52;97845.91;;;3.20;100.00
78741;BME280;68062;48.726;9.370;2024-01-06T07:13:21;97862.06;;;3.23;100.00
78741;BME280;68062;48.726;9.370;2024-01-06T07:15:49;97860.34;;;3.22;100.00
78741;BME280;68062;48.726;9.370;2024-01-06T07:18:20;97869.72;;;3.27;100.00
78741;BME280;68062;48.726;9.370;2024-01-06T07:20:50;97866.41;;;3.32;100.00
78741;BME280;68062;48.726;9.370;2024-01-06T07:23:18;97875.91;;;3.47;100.00
78741;BME280;68062;48.726;9.370;2024-01-06T07:25:47;97877.47;;;3.36;100.00
78741;BME280;68062;48.726;9.370;2024-01-06T07:28:15;97876.59;;;3.34;100.00
78741;BME280;68062;48.726;9.370;2024-01-06T07:30:43;97876.59;;;3.35;100.00
78741;BME280;68062;48.726;9.370;2024-01-06T07:33:12;97857.84;;;3.27;100.00
78741;BME280;68062;48.726;9.370;2024-01-06T07:35:42;97869.81;;;3.34;100.00
78741;BME280;68062;48.726;9.370;2024-01-06T07:38:12;97880.88;;;3.39;100.00
78741;BME280;68062;48.726;9.370;2024-01-06T07:40:41;97881.81;;;3.45;100.00
78741;BME280;68062;48.726;9.370;2024-01-06T07:43:11;97879.28;;;3.46;100.00
78741;BME280;68062;48.726;9.370;2024-01-06T07:45:41;97880.16;;;3.50;100.00
78741;BME280;68062;48.726;9.370;2024-01-06T07:48:09;97884.38;;;3.48;100.00
78741;BME280;68062;48.726;9.370;2024-01-06T07:50:37;97886.13;;;3.50;100.00
78741;BME280;68062;48.726;9.370;2024-01-06T07:53:07;97887.75;;;3.45;100.00
78741;BME280;68062;48.726;9.370;2024-01-06T07:55:35;97885.22;;;3.45;100.00
78741;BME280;68062;48.726;9.370;2024-01-06T07:58:02;97858.69;;;3.26;100.00
78741;BME280;68062;48.726;9.370;2024-01-06T08:00:30;97887.84;;;3.53;100.00
78741;BME280;68062;48.726;9.370;2024-01-06T08:02:58;97892.19;;;3.63;100.00
78741;BME280;68062;48.726;9.370;2024-01-06T08:05:26;97887.16;;;3.66;100.00
78741;BME280;68062;48.726;9.370;2024-01-06T08:07:54;97881.25;;;3.69;100.00
78741;BME280;68062;48.726;9.370;2024-01-06T08:10:26;97889.03;;;3.81;100.00
78741;BME280;68062;48.726;9.370;2024-01-06T08:12:55;97882.16;;;3.74;100.00
78741;BME280;68062;48.726;9.370;2024-01-06T08:15:25;97888.94;;;3.74;100.00
78741;BME280;68062;48.726;9.370;2024-01-06T08:17:53;97894.94;;;3.80;100.00
78741;BME280;68062;48.726;9.370;2024-01-06T08:20:23;97884.78;;;3.80;100.00
78741;BME280;68062;48.726;9.370;2024-01-06T08:22:54;97895.13;;;3.97;100.00
78741;BME280;68062;48.726;9.370;2024-01-06T08:25:23;97903.66;;;4.04;100.00
78741;BME280;68062;48.726;9.370;2024-01-06T08:27:51;97892.66;;;4.07;100.00
78741;BME280;68062;48.726;9.370;2024-01-06T08:30:19;97899.56;;;4.17;100.00
78741;BME280;68062;48.726;9.370;2024-01-06T08:32:48;97892.81;;;4.22;100.00
78741;BME280;68062;48.726;9.370;2024-01-06T08:35:16;97897.09;;;4.28;100.00
78741;BME280;68062;48.726;9.370;2024-01-06T08:37:44;97898.84;;;4.32;100.00
78741;BME280;68062;48.726;9.370;2024-01-06T08:40:12;97904.00;;;4.38;100.00
78741;BME280;68062;48.726;9.370;2024-01-06T08:42:41;97910.84;;;4.46;100.00
78741;BME280;68062;48.726;9.370;2024-01-06T08:45:12;97891.28;;;4.40;100.00
78741;BME280;68062;48.726;9.370;2024-01-06T08:47:40;97914.31;;;4.54;100.00
78741;BME280;68062;48.726;9.370;2024-01-06T08:50:09;97899.00;;;4.49;100.00
78741;BME280;68062;48.726;9.370;2024-01-06T08:52:38;97911.00;;;4.64;100.00
78741;BME280;68062;48.726;9.370;2024-01-06T08:55:07;97908.50;;;4.70;100.00
78741;BME280;68062;48.726;9.370;2024-01-06T08:57:42;97897.44;;;4.65;100.00
78741;BME280;68062;48.726;9.370;2024-01-06T09:00:12;97894.03;;;4.63;100.00
78741;BME280;68062;48.726;9.370;2024-01-06T09:02:40;97927.31;;;4.83;100.00
78741;BME280;68062;48.726;9.370;2024-01-06T09:05:08;97921.41;;;4.88;100.00
78741;BME280;68062;48.726;9.370;2024-01-06T09:07:38;97893.22;;;4.69;100.00
78741;BME280;68062;48.726;9.370;2024-01-06T09:10:07;97918.88;;;4.91;100.00
78741;BME280;68062;48.726;9.370;2024-01-06T09:12:36;97929.03;;;4.89;100.00
78741;BME280;68062;48.726;9.370;2024-01-06T09:15:06;97921.41;;;4.92;100.00
78741;BME280;68062;48.726;9.370;2024-01-06T09:17:34;97927.38;;;4.93;100.00
78741;BME280;68062;48.726;9.370;2024-01-06T09:20:04;97929.06;;;4.92;100.00
78741;BME280;68062;48.726;9.370;2024-01-06T09:22:32;97932.47;;;4.94;100.00
78741;BME280;68062;48.726;9.370;2024-01-06T09:25:00;97923.09;;;4.90;100.00
78741;BME280;68062;48.726;9.370;2024-01-06T09:27:28;97937.56;;;4.94;100.00
78741;BME280;68062;48.726;9.370;2024-01-06T09:29:56;97936.75;;;4.97;100.00
78741;BME280;68062;48.726;9.370;2024-01-06T09:32:26;97930.75;;;4.90;100.00
78741;BME280;68062;48.726;9.370;2024-01-06T09:34:56;97951.22;;;5.03;100.00
78741;BME280;68062;48.726;9.370;2024-01-06T09:37:24;97953.78;;;5.04;100.00
78741;BME280;68062;48.726;9.370;2024-01-06T09:39:52;97955.53;;;5.08;100.00
78741;BME280;68062;48.726;9.370;2024-01-06T09:42:20;97964.03;;;5.12;100.00
78741;BME280;68062;48.726;9.370;2024-01-06T09:44:54;97967.47;;;5.15;100.00
78741;BME280;68062;48.726;9.370;2024-01-06T09:47:22;97949.59;;;5.09;100.00
78741;BME280;68062;48.726;9.370;2024-01-06T09:49:55;97964.06;;;5.18;100.00
78741;BME280;68062;48.726;9.370;2024-01-06T09:52:26;97955.53;;;5.13;100.00
78741;BME280;68062;48.726;9.370;2024-01-06T09:54:57;97950.44;;;5.13;100.00
78741;BME280;68062;48.726;9.370;2024-01-06T09:57:27;97960.69;;;5.18;100.00
78741;BME280;68062;48.726;9.370;2024-01-06T09:59:55;97959.88;;;5.31;100.00
78741;BME280;68062;48.726;9.370;2024-01-06T10:02:24;97956.50;;;5.26;100.00
78741;BME280;68062;48.726;9.370;2024-01-06T10:04:54;97954.81;;;5.29;100.00
78741;BME280;68062;48.726;9.370;2024-01-06T10:07:23;97959.06;;;5.29;100.00
78741;BME280;68062;48.726;9.370;2024-01-06T10:09:54;97963.34;;;5.39;100.00
78741;BME280;68062;48.726;9.370;2024-01-06T10:12:23;97965.09;;;5.45;100.00
78741;BME280;68062;48.726;9.370;2024-01-06T10:14:51;97951.50;;;5.51;100.00
78741;BME280;68062;48.726;9.370;2024-01-06T10:17:19;97968.59;;;5.64;99.69
78741;BME280;68062;48.726;9.370;2024-01-06T10:19:47;97966.94;;;5.72;100.00
78741;BME280;68062;48.726;9.370;2024-01-06T10:22:16;97964.47;;;5.86;100.00
78741;BME280;68062;48.726;9.370;2024-01-06T10:24:45;97972.19;;;6.03;100.00
78741;BME280;68062;48.726;9.370;2024-01-06T10:27:13;97957.78;;;6.18;100.00
78741;BME280;68062;48.726;9.370;2024-01-06T10:29:41;97964.63;;;6.31;100.00
78741;BME280;68062;48.726;9.370;2024-01-06T10:32:09;97960.44;;;6.65;100.00
78741;BME280;68062;48.726;9.370;2024-01-06T10:34:36;97959.59;;;6.94;97.84
78741;BME280;68062;48.726;9.370;2024-01-06T10:37:05;97953.59;;;7.32;95.08
78741;BME280;68062;48.726;9.370;2024-01-06T10:39:34;97958.56;;;7.83;90.98
78741;BME280;68062;48.726;9.370;2024-01-06T10:42:06;97944.72;;;8.20;89.28
78741;BME280;68062;48.726;9.370;2024-01-06T10:44:34;97942.97;;;8.30;83.81
78741;BME280;68062;48.726;9.370;2024-01-06T10:47:03;97950.63;;;8.36;82.80
78741;BME280;68062;48.726;9.370;2024-01-06T10:49:33;97945.59;;;8.16;80.74
78741;BME280;68062;48.726;9.370;2024-01-06T10:52:04;97946.53;;;8.04;82.42
78741;BME280;68062;48.726;9.370;2024-01-06T10:54:34;97938.94;;;7.79;83.89
78741;BME280;68062;48.726;9.370;2024-01-06T10:57:04;97941.63;;;7.45;83.84
78741;BME280;68062;48.726;9.370;2024-01-06T10:59:34;97944.22;;;7.21;85.89
78741;BME280;68062;48.726;9.370;2024-01-06T11:02:04;97941.69;;;6.94;86.77
78741;BME280;68062;48.726;9.370;2024-01-06T11:04:34;97944.25;;;6.80;87.26
78741;BME280;68062;48.726;9.370;2024-01-06T11:09:28;97943.34;;;6.29;90.62
78741;BME280;68062;48.726;9.370;2024-01-06T11:11:58;97945.06;;;6.29;91.73
78741;BME280;68062;48.726;9.370;2024-01-06T11:14:27;97942.47;;;6.27;93.08
78741;BME280;68062;48.726;9.370;2024-01-06T11:16:55;97948.44;;;6.23;93.50
78741;BME280;68062;48.726;9.370;2024-01-06T11:19:48;97950.94;;;6.03;92.12
78741;BME280;68062;48.726;9.370;2024-01-06T11:22:26;97950.06;;;6.06;94.04
78741;BME280;68062;48.726;9.370;2024-01-06T11:25:03;97932.97;;;5.92;94.41
78741;BME280;68062;48.726;9.370;2024-01-06T11:27:33;97949.13;;;5.83;91.90
78741;BME280;68062;48.726;9.370;2024-01-06T11:30:03;97924.34;;;5.62;93.00
78741;BME280;68062;48.726;9.370;2024-01-06T11:32:34;97943.88;;;5.57;95.20
78741;BME280;68062;48.726;9.370;2024-01-06T11:35:07;97943.91;;;5.58;96.33
78741;BME280;68062;48.726;9.370;2024-01-06T11:37:41;97946.44;;;5.55;97.52
78741;BME280;68062;48.726;9.370;2024-01-06T11:40:24;97936.16;;;5.37;97.58
78741;BME280;68062;48.726;9.370;2024-01-06T11:43:01;97935.28;;;5.30;98.28
78741;BME280;68062;48.726;9.370;2024-01-06T11:45:30;97932.63;;;5.19;100.00
78741;BME280;68062;48.726;9.370;2024-01-06T11:48:00;97927.59;;;5.28;100.00
78741;BME280;68062;48.726;9.370;2024-01-06T11:50:29;97922.47;;;5.25;100.00
78741;BME280;68062;48.726;9.370;2024-01-06T11:52:57;97927.63;;;5.32;100.00
78741;BME280;68062;48.726;9.370;2024-01-06T11:55:28;97925.91;;;5.26;100.00
78741;BME280;68062;48.726;9.370;2024-01-06T11:57:59;97918.25;;;5.26;100.00
78741;BME280;68062;48.726;9.370;2024-01-06T12:00:30;97923.38;;;5.30;100.00
78741;BME280;68062;48.726;9.370;2024-01-06T12:02:59;97918.25;;;5.30;100.00
78741;BME280;68062;48.726;9.370;2024-01-06T12:05:28;97920.81;;;5.30;100.00
78741;BME280;68062;48.726;9.370;2024-01-06T12:07:57;97925.13;;;5.44;100.00
78741;BME280;68062;48.726;9.370;2024-01-06T12:10:28;97914.94;;;5.47;100.00
78741;BME280;68062;48.726;9.370;2024-01-06T12:12:57;97917.47;;;5.44;100.00
78741;BME280;68062;48.726;9.370;2024-01-06T12:15:28;97914.09;;;5.45;100.00
78741;BME280;68062;48.726;9.370;2024-01-06T12:17:57;97917.47;;;5.45;100.00
78741;BME280;68062;48.726;9.370;2024-01-06T12:20:26;97906.31;;;5.20;100.00
78741;BME280;68062;48.726;9.370;2024-01-06T12:22:56;97913.16;;;5.30;100.00
78741;BME280;68062;48.726;9.370;2024-01-06T12:25:25;97907.22;;;5.36;100.00
78741;BME280;68062;48.726;9.370;2024-01-06T12:27:57;97905.53;;;5.34;100.00
78741;BME280;68062;48.726;9.370;2024-01-06T12:30:25;97904.66;;;5.27;100.00
78741;BME280;68062;48.726;9.370;2024-01-06T12:32:54;97904.66;;;5.28;100.00
78741;BME280;68062;48.726;9.370;2024-01-06T12:35:22;97905.50;;;5.32;100.00
78741;BME280;68062;48.726;9.370;2024-01-06T12:37:51;97900.47;;;5.41;100.00
78741;BME280;68062;48.726;9.370;2024-01-06T12:40:19;97903.03;;;5.48;100.00
78741;BME280;68062;48.726;9.370;2024-01-06T12:42:48;97898.84;;;5.59;100.00
78741;BME280;68062;48.726;9.370;2024-01-06T12:45:17;97900.56;;;5.58;100.00
78741;BME280;68062;48.726;9.370;2024-01-06T12:47:46;97906.44;;;5.42;100.00
78741;BME280;68062;48.726;9.370;2024-01-06T12:50:14;97905.56;;;5.40;100.00
78741;BME280;68062;48.726;9.370;2024-01-06T12:52:42;97900.47;;;5.48;100.00
78741;BME280;68062;48.726;9.370;2024-01-06T12:55:12;97899.63;;;5.44;100.00
78741;BME280;68062;48.726;9.370;2024-01-06T12:57:42;97904.69;;;5.39;100.00
78741;BME280;68062;48.726;9.370;2024-01-06T13:00:10;97904.72;;;5.42;100.00
78741;BME280;68062;48.726;9.370;2024-01-06T13:02:40;97897.91;;;5.41;100.00
78741;BME280;68062;48.726;9.370;2024-01-06T13:05:08;97903.03;;;5.48;100.00
78741;BME280;68062;48.726;9.370;2024-01-06T13:07:36;97909.91;;;5.64;100.00
78741;BME280;68062;48.726;9.370;2024-01-06T13:10:05;97898.81;;;5.53;100.00
78741;BME280;68062;48.726;9.370;2024-01-06T13:12:34;97914.94;;;5.47;100.00